Terminal Aerodrome Forecast
Issued by NWS

Home | Current Version | Previous Version | Text Only | Print | Product List | Glossary On
Versions: 1 2 3 4 5 6 7 8 9 10 11 12 13 14 15 16
000
FTUS44 KJAN 020520
TAFGTR
TAF
KGTR 020520Z 0206/0306 08005KT P6SM FEW050 SCT150 SCT250
     FM021000 VRB03KT 6SM BR HZ FEW120 SCT250
     FM021400 36005KT P6SM FEW060 SCT120 SCT250=

USA.gov is the U.S. government's official web portal to all federal, state and local government web resources and services.